METAR & TAF Report
Available data for CYAM from the past 6 hours
SAULT STE MARIE, ON
Metar
CYAM 242200Z 33010G15KT 290V360 15SM FEW044CB FEW095 SCT250 20/09 A2985 RMK CB1AC1CI3 AC TR CB S-SW CONTRAILS SLP112 DENSITY ALT 1500FT

22:00 UTC

Wind: 330° 10kt

Visibility: 15 SM

Sky: FEW 4400 ft

Temp: 20 deg C / 68 deg F

Dewpoint: 9 deg C / 48.2 deg F

Pressure: 29.85 inHg

TAF
TAF CYAM 241938Z 2420/2508 29012KT P6SM FEW030 FEW090 BECMG 2420/2422 33008G18KT BECMG 2500/2502 30010KT FM250400 30010KT 6SM BR SCT008 BKN060 FM250700 30010KT 3SM BR SCT004 BKN070 PROB30 2507/2508 1SM BR OVC004 RMK NXT FCST BY 250200Z
NOTAM

Click here for NOTAMs.